Map

Track Data

SID SEASON NUMBER BASIN SUBBASIN NAME ISO_TIME NATURE LAT LON WMO_WIND WMO_PRES WMO_AGENCY TRACK_TYPE DIST2LAND LANDFALL IFLAG USA_AGENCY USA_ATCF_ID USA_LAT USA_LON USA_RECORD USA_STATUS USA_WIND USA_PRES USA_SSHS USA_R34_NE USA_R34_SE USA_R34_SW USA_R34_NW USA_R50_NE USA_R50_SE USA_R50_SW USA_R50_NW USA_R64_NE USA_R64_SE USA_R64_SW USA_R64_NW USA_POCI USA_ROCI USA_RMW USA_EYE TOKYO_LAT TOKYO_LON TOKYO_GRADE TOKYO_WIND TOKYO_PRES TOKYO_R50_DIR TOKYO_R50_LONG TOKYO_R50_SHORT TOKYO_R30_DIR TOKYO_R30_LONG TOKYO_R30_SHORT TOKYO_LAND CMA_LAT CMA_LON CMA_CAT CMA_WIND CMA_PRES HKO_LAT HKO_LON HKO_CAT HKO_WIND HKO_PRES NEWDELHI_LAT NEWDELHI_LON NEWDELHI_GRADE NEWDELHI_WIND NEWDELHI_PRES NEWDELHI_CI NEWDELHI_DP NEWDELHI_POCI REUNION_LAT REUNION_LON REUNION_TYPE REUNION_WIND REUNION_PRES REUNION_TNUM REUNION_CI REUNION_RMW REUNION_R34_NE REUNION_R34_SE REUNION_R34_SW REUNION_R34_NW REUNION_R50_NE REUNION_R50_SE REUNION_R50_SW REUNION_R50_NW REUNION_R64_NE REUNION_R64_SE REUNION_R64_SW REUNION_R64_NW BOM_LAT BOM_LON BOM_TYPE BOM_WIND BOM_PRES BOM_TNUM BOM_CI BOM_RMW BOM_R34_NE BOM_R34_SE BOM_R34_SW BOM_R34_NW BOM_R50_NE BOM_R50_SE BOM_R50_SW BOM_R50_NW BOM_R64_NE BOM_R64_SE BOM_R64_SW BOM_R64_NW BOM_ROCI BOM_POCI BOM_EYE BOM_POS_METHOD BOM_PRES_METHOD NADI_LAT NADI_LON NADI_CAT NADI_WIND NADI_PRES WELLINGTON_LAT WELLINGTON_LON WELLINGTON_WIND WELLINGTON_PRES DS824_LAT DS824_LON DS824_STAGE DS824_WIND DS824_PRES TD9636_LAT TD9636_LON TD9636_STAGE TD9636_WIND TD9636_PRES TD9635_LAT TD9635_LON TD9635_WIND TD9635_PRES TD9635_ROCI NEUMANN_LAT NEUMANN_LON NEUMANN_CLASS NEUMANN_WIND NEUMANN_PRES MLC_LAT MLC_LON MLC_CLASS MLC_WIND MLC_PRES USA_GUST BOM_GUST BOM_GUST_PER REUNION_GUST REUNION_GUST_PER USA_SEAHGT USA_SEARAD_NE USA_SEARAD_SE USA_SEARAD_SW USA_SEARAD_NW STORM_SPEED STORM_DIR
1940219N19295 1940 44 NA CS NOT_NAMED 1940-08-05 18:00:00 TS 18.9000 -64.8000 40 hurdat_atl main 101 56 O_____________ hurdat_atl AL031940 18.9000 -64.8000 TS 40 0 15 274
1940219N19295 1940 44 NA NA NOT_NAMED 1940-08-05 21:00:00 TS 18.9530 -65.5803 main 67 67 P_____________ AL031940 18.9530 -65.5803 TS 40 0 15 278
1940219N19295 1940 44 NA NA NOT_NAMED 1940-08-06 00:00:00 TS 19.1000 -66.4000 40 hurdat_atl main 78 78 O_____________ hurdat_atl AL031940 19.1000 -66.4000 TS 40 0 17 286
1940219N19295 1940 44 NA NA NOT_NAMED 1940-08-06 03:00:00 TS 19.4048 -67.2849 main 111 111 P_____________ AL031940 19.4048 -67.2849 TS 40 0 18 292
1940219N19295 1940 44 NA NA NOT_NAMED 1940-08-06 06:00:00 TS 19.8000 -68.2000 40 hurdat_atl main 118 94 O_____________ hurdat_atl AL031940 19.8000 -68.2000 TS 40 0 19 294
1940219N19295 1940 44 NA NA NOT_NAMED 1940-08-06 09:00:00 TS 20.1775 -69.1303 main 102 94 P_____________ AL031940 20.1775 -69.1303 TS 40 0 19 295
1940219N19295 1940 44 NA NA NOT_NAMED 1940-08-06 12:00:00 TS 20.6000 -70.0000 40 hurdat_atl main 108 108 O_____________ hurdat_atl AL031940 20.6000 -70.0000 TS 40 0 18 302
1940219N19295 1940 44 NA NA NOT_NAMED 1940-08-06 15:00:00 TS 21.1295 -70.7447 main 145 145 P_____________ AL031940 21.1295 -70.7447 TS 40 0 16 307
1940219N19295 1940 44 NA NA NOT_NAMED 1940-08-06 18:00:00 TS 21.6000 -71.4000 40 1003 hurdat_atl main 171 123 O_____________ hurdat_atl AL031940 21.6000 -71.4000 TS 40 1003 0 14 300
1940219N19295 1940 44 NA NA NOT_NAMED 1940-08-06 21:00:00 TS 21.8374 -72.0458 main 123 98 P_____________ AL031940 21.8374 -72.0458 TS 40 0 12 290
1940219N19295 1940 44 NA NA NOT_NAMED 1940-08-07 00:00:00 TS 22.0000 -72.6000 40 hurdat_atl main 98 94 O_____________ hurdat_atl AL031940 22.0000 -72.6000 TS 40 0 10 292
1940219N19295 1940 44 NA NA NOT_NAMED 1940-08-07 03:00:00 TS 22.2273 -73.0676 main 111 111 P_____________ AL031940 22.2273 -73.0676 TS 42 0 9 304
1940219N19295 1940 44 NA NA NOT_NAMED 1940-08-07 06:00:00 TS 22.5000 -73.4000 45 hurdat_atl main 146 146 O_____________ hurdat_atl AL031940 22.5000 -73.4000 TS 45 0 8 319
1940219N19295 1940 44 NA NA NOT_NAMED 1940-08-07 09:00:00 TS 22.8049 -73.6027 main 183 183 P_____________ AL031940 22.8049 -73.6027 TS 45 0 8 338
1940219N19295 1940 44 NA NA NOT_NAMED 1940-08-07 12:00:00 TS 23.2000 -73.7000 45 hurdat_atl main 229 229 O_____________ hurdat_atl AL031940 23.2000 -73.7000 TS 45 0 9 351
1940219N19295 1940 44 NA NA NOT_NAMED 1940-08-07 15:00:00 TS 23.7275 -73.7651 main 286 286 P_____________ AL031940 23.7275 -73.7651 TS 45 0 11 355
1940219N19295 1940 44 NA NA NOT_NAMED 1940-08-07 18:00:00 TS 24.3000 -73.8000 45 hurdat_atl main 351 351 O_____________ hurdat_atl AL031940 24.3000 -73.8000 TS 45 0 11 355
1940219N19295 1940 44 NA NA NOT_NAMED 1940-08-07 21:00:00 TS 24.8150 -73.8649 main 385 385 P_____________ AL031940 24.8150 -73.8649 TS 47 0 10 355
1940219N19295 1940 44 NA NA NOT_NAMED 1940-08-08 00:00:00 TS 25.3000 -73.9000 50 hurdat_atl main 393 393 O_____________ hurdat_atl AL031940 25.3000 -73.9000 TS 50 0 9 0
1940219N19295 1940 44 NA NA NOT_NAMED 1940-08-08 03:00:00 TS 25.7575 -73.8577 main 408 408 P_____________ AL031940 25.7575 -73.8577 TS 52 0 9 5
1940219N19295 1940 44 NA NA NOT_NAMED 1940-08-08 06:00:00 TS 26.2000 -73.8000 55 hurdat_atl main 434 434 O_____________ hurdat_atl AL031940 26.2000 -73.8000 TS 55 0 9 3
1940219N19295 1940 44 NA NA NOT_NAMED 1940-08-08 09:00:00 TS 26.6575 -73.7924 main 456 456 P_____________ AL031940 26.6575 -73.7924 TS 55 0 9 0
1940219N19295 1940 44 NA NA NOT_NAMED 1940-08-08 12:00:00 TS 27.1000 -73.8000 55 hurdat_atl main 474 474 O_____________ hurdat_atl AL031940 27.1000 -73.8000 TS 55 0 9 0
1940219N19295 1940 44 NA NA NOT_NAMED 1940-08-08 15:00:00 TS 27.5300 -73.8000 main 496 496 P_____________ AL031940 27.5300 -73.8000 TS 57 0 8 1
1940219N19295 1940 44 NA NA NOT_NAMED 1940-08-08 18:00:00 TS 27.9000 -73.8000 60 hurdat_atl main 521 521 O_____________ hurdat_atl AL031940 27.9000 -73.8000 TS 60 0 6 2
1940219N19295 1940 44 NA NA NOT_NAMED 1940-08-08 21:00:00 TS 28.1724 -73.7702 main 541 541 P_____________ AL031940 28.1724 -73.7702 TS 60 0 5 2
1940219N19295 1940 44 NA NA NOT_NAMED 1940-08-09 00:00:00 TS 28.4000 -73.8000 60 hurdat_atl main 556 556 O_____________ hurdat_atl AL031940 28.4000 -73.8000 TS 60 0 5 342
1940219N19295 1940 44 NA NA NOT_NAMED 1940-08-09 03:00:00 TS 28.6650 -73.9549 main 564 564 P_____________ AL031940 28.6650 -73.9549 TS 62 0 6 325
1940219N19295 1940 44 NA NA NOT_NAMED 1940-08-09 06:00:00 TS 28.9000 -74.2000 65 hurdat_atl main 566 560 O_____________ hurdat_atl AL031940 28.9000 -74.2000 HU 65 1 6 311
1940219N19295 1940 44 NA NA NOT_NAMED 1940-08-09 09:00:00 TS 29.0726 -74.4925 main 565 553 P_____________ AL031940 29.0726 -74.4925 HU 65 1 6 300
1940219N19295 1940 44 NA NA NOT_NAMED 1940-08-09 12:00:00 TS 29.2000 -74.8000 65 hurdat_atl main 556 542 O_____________ hurdat_atl AL031940 29.2000 -74.8000 HU 65 1 5 296
1940219N19295 1940 44 NA NA NOT_NAMED 1940-08-09 15:00:00 TS 29.3149 -75.0501 main 532 515 P_____________ AL031940 29.3149 -75.0501 HU 67 1 5 295
1940219N19295 1940 44 NA NA NOT_NAMED 1940-08-09 18:00:00 TS 29.4000 -75.3000 70 hurdat_atl main 515 488 O_____________ hurdat_atl AL031940 29.4000 -75.3000 HU 70 1 5 287
1940219N19295 1940 44 NA NA NOT_NAMED 1940-08-09 21:00:00 TS 29.4575 -75.6001 main 488 460 P_____________ AL031940 29.4575 -75.6001 HU 70 1 5 281
1940219N19295 1940 44 NA NA NOT_NAMED 1940-08-10 00:00:00 TS 29.5000 -75.9000 70 hurdat_atl main 460 441 O_____________ hurdat_atl AL031940 29.5000 -75.9000 HU 70 1 5 279
1940219N19295 1940 44 NA NA NOT_NAMED 1940-08-10 03:00:00 TS 29.5349 -76.1576 main 432 416 P_____________ AL031940 29.5349 -76.1576 HU 72 1 4 283
1940219N19295 1940 44 NA NA NOT_NAMED 1940-08-10 06:00:00 TS 29.6000 -76.4000 75 hurdat_atl main 416 401 O_____________ hurdat_atl AL031940 29.6000 -76.4000 HU 75 1 5 294
1940219N19295 1940 44 NA NA NOT_NAMED 1940-08-10 09:00:00 TS 29.7275 -76.6500 main 392 382 P_____________ AL031940 29.7275 -76.6500 HU 77 1 5 305
1940219N19295 1940 44 NA NA NOT_NAMED 1940-08-10 12:00:00 TS 29.9000 -76.9000 80 hurdat_atl main 382 369 O_____________ hurdat_atl AL031940 29.9000 -76.9000 HU 80 1 6 310
1940219N19295 1940 44 NA NA NOT_NAMED 1940-08-10 15:00:00 TS 30.0925 -77.1500 main 366 355 P_____________ AL031940 30.0925 -77.1500 HU 80 1 6 313
1940219N19295 1940 44 NA NA NOT_NAMED 1940-08-10 18:00:00 TS 30.3000 -77.4000 80 hurdat_atl main 355 326 O_____________ hurdat_atl AL031940 30.3000 -77.4000 HU 80 1 6 313
1940219N19295 1940 44 NA NA NOT_NAMED 1940-08-10 21:00:00 TS 30.4849 -77.6428 main 326 290 P_____________ AL031940 30.4849 -77.6428 HU 82 1 6 313
1940219N19295 1940 44 NA NA NOT_NAMED 1940-08-11 00:00:00 TS 30.7000 -77.9000 85 hurdat_atl main 290 246 O_____________ hurdat_atl AL031940 30.7000 -77.9000 HU 85 2 7 318
1940219N19295 1940 44 NA NA NOT_NAMED 1940-08-11 03:00:00 TS 30.9924 -78.1776 main 246 202 P_____________ AL031940 30.9924 -78.1776 HU 85 2 8 319
1940219N19295 1940 44 NA NA NOT_NAMED 1940-08-11 06:00:00 TS 31.3000 -78.5000 85 hurdat_atl main 202 158 O_____________ hurdat_atl AL031940 31.3000 -78.5000 HU 85 2 8 314
1940219N19295 1940 44 NA NA NOT_NAMED 1940-08-11 09:00:00 TS 31.5723 -78.8701 main 152 110 P_____________ AL031940 31.5723 -78.8701 HU 85 2 8 306
1940219N19295 1940 44 NA NA NOT_NAMED 1940-08-11 12:00:00 TS 31.8000 -79.3000 85 hurdat_atl main 110 72 O_____________ hurdat_atl AL031940 31.8000 -79.3000 HU 85 2 8 300
1940219N19295 1940 44 NA NA NOT_NAMED 1940-08-11 15:00:00 TS 31.9974 -79.7289 main 72 35 P_____________ AL031940 31.9974 -79.7289 HU 85 2 9 289
1940219N19295 1940 44 NA NA NOT_NAMED 1940-08-11 18:00:00 TS 32.1000 -80.3000 85 972 hurdat_atl main 35 0 O_____________ hurdat_atl AL031940 32.1000 -80.3000 HU 85 972 2 11 276
1940219N19295 1940 44 NA NA NOT_NAMED 1940-08-11 20:00:00 TS 32.1000 -80.8000 85 972 hurdat_atl main 0 0 O_____________ hurdat_atl AL031940 32.1000 -80.8000 L HU 85 972 2 11 271
1940219N19295 1940 44 NA NA NOT_NAMED 1940-08-11 21:00:00 TS 32.1138 -80.9690 main 0 0 P_____________ AL031940 32.1138 -80.9690 HU 80 973 1 7 283
1940219N19295 1940 44 NA NA NOT_NAMED 1940-08-12 00:00:00 TS 32.2000 -81.3000 65 977 hurdat_atl main 0 0 O_____________ hurdat_atl AL031940 32.2000 -81.3000 HU 65 977 1 7 284
1940219N19295 1940 44 NA NA NOT_NAMED 1940-08-12 03:00:00 TS 32.2955 -81.8181 main 0 0 P_____________ AL031940 32.2955 -81.8181 HU 57 981 0 10 282
1940219N19295 1940 44 NA NA NOT_NAMED 1940-08-12 06:00:00 TS 32.4000 -82.4000 50 hurdat_atl main 0 0 I_____________ hurdat_atl AL031940 32.4000 -82.4000 TS 50 986 0 10 280
1940219N19295 1940 44 NA NA NOT_NAMED 1940-08-12 09:00:00 TS 32.4701 -82.9804 main 0 0 P_____________ AL031940 32.4701 -82.9804 TS 42 991 0 9 282
1940219N19295 1940 44 NA NA NOT_NAMED 1940-08-12 12:00:00 TS 32.6000 -83.5000 35 996 hurdat_atl main 0 0 O_____________ hurdat_atl AL031940 32.6000 -83.5000 TS 35 996 0 9 298
1940219N19295 1940 44 NA NA NOT_NAMED 1940-08-12 15:00:00 TS 32.8772 -83.8948 main 0 0 P_____________ AL031940 32.8772 -83.8948 TS 32 999 -1 8 316
1940219N19295 1940 44 NA NA NOT_NAMED 1940-08-12 18:00:00 TS 33.2000 -84.2000 30 1003 hurdat_atl main 0 0 O_____________ hurdat_atl AL031940 33.2000 -84.2000 TD 30 1003 -1 8 319
1940219N19295 1940 44 NA NA NOT_NAMED 1940-08-12 21:00:00 TS 33.4500 -84.4951 main 0 0 P_____________ AL031940 33.4500 -84.4951 TD 30 1004 -1 7 320
1940219N19295 1940 44 NA NA NOT_NAMED 1940-08-13 00:00:00 TS 33.7000 -84.7000 30 1005 hurdat_atl main 0 0 O_____________ hurdat_atl AL031940 33.7000 -84.7000 TD 30 1005 -1 6 336
1940219N19295 1940 44 NA NA NOT_NAMED 1940-08-13 03:00:00 TS 33.9924 -84.7877 main 0 0 P_____________ AL031940 33.9924 -84.7877 TD 30 1006 -1 6 352
1940219N19295 1940 44 NA NA NOT_NAMED 1940-08-13 06:00:00 TS 34.3000 -84.8000 30 1007 hurdat_atl main 0 0 O_____________ hurdat_atl AL031940 34.3000 -84.8000 TD 30 1007 -1 6 358
1940219N19295 1940 44 NA NA NOT_NAMED 1940-08-13 09:00:00 TS 34.6000 -84.8076 main 0 0 P_____________ AL031940 34.6000 -84.8076 TD 27 1007 -1 6 0
1940219N19295 1940 44 NA NA NOT_NAMED 1940-08-13 12:00:00 TS 34.9000 -84.8000 25 1008 hurdat_atl main 0 0 O_____________ hurdat_atl AL031940 34.9000 -84.8000 TD 25 1008 -1 6 358
1940219N19295 1940 44 NA NA NOT_NAMED 1940-08-13 15:00:00 TS 35.2075 -84.8149 main 0 0 P_____________ AL031940 35.2075 -84.8149 TD 25 -1 6 0
1940219N19295 1940 44 NA NA NOT_NAMED 1940-08-13 18:00:00 TS 35.5000 -84.8000 25 hurdat_atl main 0 0 O_____________ hurdat_atl AL031940 35.5000 -84.8000 TD 25 -1 6 5
1940219N19295 1940 44 NA NA NOT_NAMED 1940-08-13 21:00:00 TS 35.7648 -84.7523 main 0 0 P_____________ AL031940 35.7648 -84.7523 TD 25 -1 5 18
1940219N19295 1940 44 NA NA NOT_NAMED 1940-08-14 00:00:00 TS 36.0000 -84.6000 25 hurdat_atl main 0 0 O_____________ hurdat_atl AL031940 36.0000 -84.6000 TD 25 -1 6 39
1940219N19295 1940 44 NA NA NOT_NAMED 1940-08-14 03:00:00 TS 36.2074 -84.3099 main 0 0 P_____________ AL031940 36.2074 -84.3099 TD 25 -1 7 55
1940219N19295 1940 44 NA NA NOT_NAMED 1940-08-14 06:00:00 TS 36.4000 -83.9000 25 hurdat_atl main 0 0 O_____________ hurdat_atl AL031940 36.4000 -83.9000 TD 25 -1 8 60
1940219N19295 1940 44 NA NA NOT_NAMED 1940-08-14 09:00:00 TS 36.6149 -83.4302 main 0 0 P_____________ AL031940 36.6149 -83.4302 TD 25 -1 9 64
1940219N19295 1940 44 NA NA NOT_NAMED 1940-08-14 12:00:00 TS 36.8000 -82.9000 25 hurdat_atl main 0 0 O_____________ hurdat_atl AL031940 36.8000 -82.9000 TD 25 -1 9 71
1940219N19295 1940 44 NA NA NOT_NAMED 1940-08-14 15:00:00 TS 36.9204 -82.3525 main 0 0 P_____________ AL031940 36.9204 -82.3525 TD 25 -1 9 77
1940219N19295 1940 44 NA NA NOT_NAMED 1940-08-14 18:00:00 TS 37.0000 -81.8000 25 hurdat_atl main 0 O_____________ hurdat_atl AL031940 37.0000 -81.8000 TD 25 -1 9 80

About IBTrACS Database

This database is a web-friendly format of International Best Track Archive for Climate Stewardship (IBTrACS), a global best track data archive curated by NOAA dating back to 1842.

Updated: 2021-11-26